createdAt,value
2022-09-10T00:02:08.947Z,4.10
2022-09-10T00:04:39.025Z,3.50
2022-09-10T00:07:07.318Z,3.47
2022-09-10T00:09:35.688Z,4.00
2022-09-10T00:12:04.201Z,4.13
2022-09-10T00:14:32.496Z,4.23
2022-09-10T00:17:00.799Z,4.50
2022-09-10T00:19:29.335Z,4.30
2022-09-10T00:21:59.154Z,4.00
2022-09-10T00:24:27.602Z,3.43
2022-09-10T00:26:56.098Z,3.97
2022-09-10T00:29:24.421Z,3.13
2022-09-10T00:31:53.238Z,3.50
2022-09-10T00:34:21.571Z,3.63
2022-09-10T00:36:49.880Z,4.30
2022-09-10T00:39:20.469Z,4.00
2022-09-10T00:41:49.141Z,5.30
2022-09-10T00:44:36.522Z,5.63
2022-09-10T00:47:04.964Z,6.60
2022-09-10T00:49:34.385Z,6.70
2022-09-10T00:52:02.678Z,6.90
2022-09-10T00:54:32.721Z,6.63
2022-09-10T00:57:02.715Z,7.40
2022-09-10T00:59:31.039Z,7.20
2022-09-10T01:01:59.830Z,7.97
2022-09-10T01:04:28.774Z,8.00
2022-09-10T01:06:57.235Z,7.43
2022-09-10T01:09:25.537Z,7.00
2022-09-10T01:12:04.596Z,5.83
2022-09-10T01:14:39.403Z,6.60
2022-09-10T01:17:11.305Z,6.80
2022-09-10T01:19:46.666Z,6.67
2022-09-10T01:22:17.261Z,7.10
2022-09-10T01:24:59.142Z,6.03
2022-09-10T01:27:48.581Z,5.63
2022-09-10T01:30:19.321Z,5.60
2022-09-10T01:32:51.562Z,5.17
2022-09-10T01:35:20.247Z,5.07
2022-09-10T01:37:49.505Z,4.30
2022-09-10T01:40:18.044Z,4.67
2022-09-10T01:42:46.621Z,3.80
2022-09-10T01:45:16.139Z,3.57
2022-09-10T01:47:51.314Z,3.23
2022-09-10T01:50:22.826Z,3.00
2022-09-10T01:52:54.600Z,2.97
2022-09-10T01:55:27.312Z,2.90
2022-09-10T01:57:56.824Z,2.97
2022-09-10T02:00:25.101Z,3.00
2022-09-10T02:02:56.223Z,2.47
2022-09-10T02:05:24.570Z,2.70
2022-09-10T02:07:54.173Z,3.10
2022-09-10T02:10:22.711Z,2.90
2022-09-10T02:12:51.395Z,3.00
2022-09-10T02:15:19.828Z,2.70
2022-09-10T02:17:49.217Z,3.00
2022-09-10T02:20:19.473Z,3.00
2022-09-10T02:22:49.765Z,3.17
2022-09-10T02:25:18.083Z,3.50
2022-09-10T02:27:46.440Z,4.37
2022-09-10T02:30:14.777Z,3.97
2022-09-10T02:32:43.038Z,4.27
2022-09-10T02:35:11.401Z,5.10
2022-09-10T02:37:41.237Z,5.40
2022-09-10T02:40:11.573Z,4.77
2022-09-10T02:42:39.976Z,4.87
2022-09-10T02:45:09.050Z,5.00
2022-09-10T02:47:37.436Z,4.30
2022-09-10T02:50:06.099Z,5.00
2022-09-10T02:52:34.390Z,5.07
2022-09-10T02:55:04.087Z,4.97
2022-09-10T02:57:32.390Z,4.43
2022-09-10T03:00:01.701Z,5.03
2022-09-10T03:02:29.968Z,4.87
2022-09-10T03:04:58.226Z,5.30
2022-09-10T03:07:26.586Z,5.50
2022-09-10T03:09:54.873Z,5.10
2022-09-10T03:12:24.539Z,5.50
2022-09-10T03:14:53.436Z,5.60
2022-09-10T03:17:21.741Z,6.50
2022-09-10T03:19:50.087Z,5.67
2022-09-10T03:22:18.400Z,5.60
2022-09-10T03:24:47.144Z,7.20
2022-09-10T03:27:16.455Z,8.60
2022-09-10T03:29:46.167Z,8.73
2022-09-10T03:32:14.539Z,8.47
2022-09-10T03:34:43.026Z,8.47
2022-09-10T03:37:11.308Z,8.13
2022-09-10T03:39:39.665Z,8.20
2022-09-10T03:42:08.166Z,8.30
2022-09-10T03:44:36.539Z,7.83
2022-09-10T03:47:06.563Z,8.20
2022-09-10T03:49:37.915Z,7.77
2022-09-10T03:52:06.249Z,7.67
2022-09-10T03:54:35.396Z,7.63
2022-09-10T03:57:03.717Z,7.70
2022-09-10T03:59:31.998Z,7.90
2022-09-10T04:02:00.332Z,7.57
2022-09-10T04:04:31.905Z,7.43
2022-09-10T04:07:01.025Z,7.53
2022-09-10T04:09:29.353Z,9.10
2022-09-10T04:11:58.668Z,9.17
2022-09-10T04:14:27.355Z,8.77
2022-09-10T04:16:56.736Z,9.50
2022-09-10T04:19:25.045Z,10.33
2022-09-10T04:21:54.704Z,9.97
2022-09-10T04:24:23.134Z,9.50
2022-09-10T04:26:52.079Z,10.77
2022-09-10T04:29:20.470Z,9.57
2022-09-10T04:31:48.805Z,9.07
2022-09-10T04:34:19.954Z,10.27
2022-09-10T04:36:48.395Z,9.70
2022-09-10T04:39:18.167Z,10.17
2022-09-10T04:41:46.618Z,10.30
2022-09-10T04:44:14.961Z,10.17
2022-09-10T04:46:44.601Z,10.23
2022-09-10T04:49:13.005Z,10.67
2022-09-10T04:51:41.398Z,10.73
2022-09-10T04:54:09.698Z,11.53
2022-09-10T04:56:39.346Z,11.07
2022-09-10T04:59:07.731Z,10.50
2022-09-10T05:01:36.000Z,10.97
2022-09-10T05:04:04.539Z,10.93
2022-09-10T05:06:33.081Z,11.10
2022-09-10T05:09:01.498Z,10.43
2022-09-10T05:11:29.800Z,11.57
2022-09-10T05:13:59.477Z,10.50
2022-09-10T05:16:27.871Z,10.20
2022-09-10T05:18:56.289Z,10.40
2022-09-10T05:21:27.484Z,10.93
2022-09-10T05:23:56.028Z,9.63
2022-09-10T05:26:24.650Z,8.87
2022-09-10T05:28:53.449Z,9.13
2022-09-10T05:31:23.394Z,9.13
2022-09-10T05:33:51.790Z,8.27
2022-09-10T05:36:20.087Z,8.47
2022-09-10T05:38:48.427Z,9.03
2022-09-10T05:41:16.675Z,8.20
2022-09-10T05:43:45.094Z,7.90
2022-09-10T05:46:13.512Z,8.47
2022-09-10T05:48:43.339Z,8.40
2022-09-10T05:51:11.859Z,8.93
2022-09-10T05:53:41.583Z,9.23
2022-09-10T05:56:10.153Z,8.57
2022-09-10T05:58:38.554Z,9.20
2022-09-10T06:01:07.038Z,8.83
2022-09-10T06:03:35.371Z,9.73
2022-09-10T06:06:06.206Z,9.40
2022-09-10T06:08:35.717Z,8.77
2022-09-10T06:11:05.174Z,9.00
2022-09-10T06:13:33.587Z,8.40
2022-09-10T06:16:01.998Z,8.13
2022-09-10T06:18:31.927Z,8.00
2022-09-10T06:21:06.307Z,7.93
2022-09-10T06:23:36.135Z,8.07
2022-09-10T06:26:05.007Z,8.13
2022-09-10T06:28:33.889Z,8.10
2022-09-10T06:31:04.408Z,7.70
2022-09-10T06:33:32.919Z,7.00
2022-09-10T06:36:01.991Z,6.63
2022-09-10T06:38:33.688Z,5.43
2022-09-10T06:41:02.761Z,5.73
2022-09-10T06:43:33.682Z,4.90
2022-09-10T06:46:02.086Z,4.20
2022-09-10T06:48:40.511Z,3.57
2022-09-10T06:51:11.035Z,2.97
2022-09-10T06:53:40.766Z,2.93
2022-09-10T06:56:09.826Z,2.63
2022-09-10T06:58:39.231Z,2.47
2022-09-10T07:01:11.940Z,2.40
2022-09-10T07:03:40.272Z,1.90
2022-09-10T07:06:09.741Z,2.10
2022-09-10T07:08:39.729Z,2.07
2022-09-10T07:11:09.930Z,2.00
2022-09-10T07:13:38.657Z,1.90
2022-09-10T07:16:07.471Z,1.97
2022-09-10T07:18:35.993Z,1.50
2022-09-10T07:21:10.982Z,1.70
2022-09-10T07:23:40.075Z,1.80
2022-09-10T07:26:11.400Z,1.83
2022-09-10T07:28:40.281Z,1.60
2022-09-10T07:31:15.694Z,2.00
2022-09-10T07:33:44.212Z,1.47
2022-09-10T07:36:12.597Z,1.97
2022-09-10T07:38:41.306Z,2.40
2022-09-10T07:41:12.144Z,2.50
2022-09-10T07:43:40.603Z,2.20
2022-09-10T07:46:09.047Z,3.37
2022-09-10T07:48:38.923Z,6.57
2022-09-10T07:51:08.316Z,6.87
2022-09-10T07:53:36.826Z,7.80
2022-09-10T07:56:05.793Z,11.00
2022-09-10T07:58:36.140Z,12.73
2022-09-10T08:01:09.225Z,13.77
2022-09-10T08:03:38.335Z,15.40
2022-09-10T08:06:06.901Z,16.87
2022-09-10T08:08:35.781Z,17.17
2022-09-10T08:11:11.755Z,17.63
2022-09-10T08:13:42.011Z,19.93
2022-09-10T08:16:10.737Z,18.97
2022-09-10T08:18:39.155Z,19.27
2022-09-10T08:21:08.512Z,19.67
2022-09-10T08:23:37.234Z,18.40
2022-09-10T08:26:06.478Z,18.40
2022-09-10T08:28:34.885Z,18.83
2022-09-10T08:31:07.549Z,17.30
2022-09-10T08:33:36.139Z,15.70
2022-09-10T08:36:04.779Z,8.63
2022-09-10T08:38:38.790Z,7.40
2022-09-10T08:41:10.882Z,6.70
2022-09-10T08:43:42.023Z,6.40
2022-09-10T08:46:15.064Z,6.90
2022-09-10T08:48:43.871Z,5.93
2022-09-10T08:51:13.693Z,6.70
2022-09-10T08:53:45.052Z,6.33
2022-09-10T08:56:16.759Z,5.73
2022-09-10T08:58:45.667Z,5.93
2022-09-10T09:01:16.216Z,5.60
2022-09-10T09:03:45.317Z,5.80
2022-09-10T09:06:20.266Z,6.00
2022-09-10T09:08:49.019Z,6.33
2022-09-10T09:11:18.396Z,6.00
2022-09-10T09:14:01.787Z,4.97
2022-09-10T09:16:35.865Z,6.13
2022-09-10T09:19:06.317Z,6.77
2022-09-10T09:21:37.127Z,7.17
2022-09-10T09:24:14.049Z,7.70
2022-09-10T09:26:42.610Z,8.37
2022-09-10T09:29:13.701Z,11.50
2022-09-10T09:31:44.931Z,10.70
2022-09-10T09:34:13.900Z,10.33
2022-09-10T09:36:44.449Z,10.20
2022-09-10T09:39:13.162Z,9.90
2022-09-10T09:41:43.635Z,9.20
2022-09-10T09:44:13.814Z,8.33
2022-09-10T09:46:43.677Z,7.47
2022-09-10T09:49:12.509Z,8.40
2022-09-10T09:51:41.252Z,7.97
2022-09-10T09:54:46.498Z,6.80
2022-09-10T09:57:00.112Z,7.63
2022-09-10T09:59:29.531Z,6.63
2022-09-10T10:02:00.618Z,7.10
2022-09-10T10:04:33.919Z,6.87
2022-09-10T10:07:02.989Z,7.10
2022-09-10T10:09:31.695Z,7.07
2022-09-10T10:12:01.613Z,7.10
2022-09-10T10:14:41.410Z,5.50
2022-09-10T10:17:29.643Z,5.27
2022-09-10T10:20:00.037Z,5.50
2022-09-10T10:22:30.238Z,5.70
2022-09-10T10:24:58.682Z,5.70
2022-09-10T10:27:32.850Z,6.13
2022-09-10T10:30:02.357Z,6.97
2022-09-10T10:32:35.273Z,6.03
2022-09-10T10:35:15.944Z,4.80
2022-09-10T10:37:45.158Z,4.10
2022-09-10T10:40:17.750Z,4.27
2022-09-10T10:42:48.151Z,3.63
2022-09-10T10:45:20.208Z,3.70
2022-09-10T10:47:49.883Z,3.40
2022-09-10T10:50:25.481Z,3.30
2022-09-10T10:52:59.904Z,3.83
2022-09-10T10:55:29.171Z,3.70
2022-09-10T10:58:04.368Z,3.80
2022-09-10T11:00:33.582Z,4.77
2022-09-10T11:03:03.291Z,3.50
2022-09-10T11:05:33.952Z,3.90
2022-09-10T11:08:02.570Z,3.70
2022-09-10T11:10:31.451Z,3.20
2022-09-10T11:13:03.912Z,3.00
2022-09-10T11:15:36.272Z,3.20
2022-09-10T11:18:07.046Z,2.57
2022-09-10T11:20:38.027Z,2.97
2022-09-10T11:23:08.560Z,3.07
2022-09-10T11:25:39.078Z,2.83
2022-09-10T11:28:10.130Z,2.80
2022-09-10T11:30:38.394Z,2.80
2022-09-10T11:33:07.639Z,2.33
2022-09-10T11:35:39.540Z,2.30
2022-09-10T11:38:08.724Z,2.00
2022-09-10T11:40:37.784Z,2.40
2022-09-10T11:43:08.420Z,2.00
2022-09-10T11:45:42.718Z,2.13
2022-09-10T11:48:13.217Z,2.20
2022-09-10T11:50:45.233Z,1.80
2022-09-10T11:53:13.756Z,1.80
2022-09-10T11:55:45.926Z,2.10
2022-09-10T11:58:16.000Z,1.30
2022-09-10T12:00:48.126Z,1.60
2022-09-10T12:03:23.841Z,1.87
2022-09-10T12:05:56.783Z,1.70
2022-09-10T12:08:29.653Z,1.63
2022-09-10T12:11:04.300Z,1.90
2022-09-10T12:13:33.410Z,2.27
2022-09-10T12:16:04.445Z,1.77
2022-09-10T12:18:33.999Z,1.83
2022-09-10T12:21:07.576Z,2.07
2022-09-10T12:23:36.364Z,2.63
2022-09-10T12:26:05.584Z,2.47
2022-09-10T12:28:52.682Z,2.50
2022-09-10T12:31:21.462Z,2.00
2022-09-10T12:34:04.714Z,2.00
2022-09-10T12:36:51.873Z,1.83
2022-09-10T12:39:24.996Z,2.00
2022-09-10T12:41:57.899Z,1.83
2022-09-10T12:44:45.024Z,2.00
2022-09-10T12:47:32.319Z,2.03
2022-09-10T12:50:01.223Z,2.03
2022-09-10T12:52:32.089Z,2.30
2022-09-10T12:55:02.367Z,2.13
2022-09-10T12:57:32.767Z,1.87
2022-09-10T13:00:18.782Z,2.00
2022-09-10T13:02:49.129Z,2.17
2022-09-10T13:05:20.360Z,2.00
2022-09-10T13:07:51.591Z,2.00
2022-09-10T13:10:22.368Z,1.87
2022-09-10T13:12:51.034Z,2.03
2022-09-10T13:15:19.988Z,1.93
2022-09-10T13:18:06.775Z,1.80
2022-09-10T13:20:35.511Z,1.80
2022-09-10T13:23:04.069Z,1.37
2022-09-10T13:25:36.682Z,1.80
2022-09-10T13:28:05.515Z,1.75
2022-09-10T13:30:33.865Z,1.83
2022-09-10T13:33:02.639Z,1.70
2022-09-10T13:35:48.803Z,1.87
2022-09-10T13:38:29.075Z,1.60
2022-09-10T13:41:12.181Z,1.67
2022-09-10T13:43:44.431Z,1.63
2022-09-10T13:46:14.802Z,1.60
2022-09-10T13:48:44.671Z,1.95
2022-09-10T13:51:16.231Z,1.70
2022-09-10T13:53:45.804Z,1.30
2022-09-10T13:56:17.647Z,1.70
2022-09-10T13:58:47.203Z,1.58
2022-09-10T14:01:15.597Z,2.03
2022-09-10T14:03:44.914Z,1.70
2022-09-10T14:06:13.496Z,1.70
2022-09-10T14:08:44.614Z,1.97
2022-09-10T14:11:18.650Z,1.65
2022-09-10T14:13:47.258Z,1.92
2022-09-10T14:16:16.450Z,1.73
2022-09-10T14:18:45.648Z,2.28
2022-09-10T14:21:17.096Z,2.17
2022-09-10T14:23:46.207Z,1.70
2022-09-10T14:26:15.571Z,1.83
2022-09-10T14:28:51.744Z,2.07
2022-09-10T14:31:21.869Z,2.30
2022-09-10T14:33:50.152Z,2.40
2022-09-10T14:36:19.185Z,2.30
2022-09-10T14:38:54.388Z,2.30
2022-09-10T14:41:23.235Z,2.50
2022-09-10T14:43:55.308Z,1.97
2022-09-10T14:46:42.390Z,2.00
2022-09-10T14:49:11.246Z,1.90
2022-09-10T14:51:39.581Z,2.07
2022-09-10T14:54:07.987Z,1.80
2022-09-10T14:56:37.953Z,2.30
2022-09-10T14:59:08.349Z,2.87
2022-09-10T15:01:36.840Z,2.30
2022-09-10T15:04:05.319Z,2.33
2022-09-10T15:06:33.814Z,2.13
2022-09-10T15:09:02.177Z,2.10
2022-09-10T15:11:30.936Z,2.20
2022-09-10T15:14:00.802Z,2.30
2022-09-10T15:16:30.934Z,2.40
2022-09-10T15:18:59.584Z,2.00
2022-09-10T15:21:28.198Z,1.93
2022-09-10T15:23:56.536Z,2.50
2022-09-10T15:26:25.480Z,2.23
2022-09-10T15:28:54.810Z,2.17
2022-09-10T15:31:23.642Z,2.27
2022-09-10T15:33:53.750Z,2.00
2022-09-10T15:36:22.502Z,2.27
2022-09-10T15:38:52.649Z,2.23
2022-09-10T15:41:21.154Z,2.40
2022-09-10T15:43:49.554Z,2.27
2022-09-10T15:46:18.666Z,2.30
2022-09-10T15:48:47.637Z,2.10
2022-09-10T15:51:20.520Z,2.40
2022-09-10T15:53:49.296Z,2.57
2022-09-10T15:56:17.933Z,2.30
2022-09-10T15:58:49.376Z,2.60
2022-09-10T16:01:17.804Z,2.67
2022-09-10T16:03:46.631Z,2.37
2022-09-10T16:06:15.476Z,2.40
2022-09-10T16:08:45.154Z,2.57
2022-09-10T16:11:13.524Z,2.60
2022-09-10T16:13:42.078Z,2.37
2022-09-10T16:16:11.965Z,2.30
2022-09-10T16:18:41.830Z,2.80
2022-09-10T16:21:11.628Z,2.53
2022-09-10T16:23:40.234Z,2.67
2022-09-10T16:26:11.116Z,2.93
2022-09-10T16:28:39.592Z,3.20
2022-09-10T16:31:15.400Z,3.40
2022-09-10T16:33:43.879Z,3.60
2022-09-10T16:36:12.997Z,2.80
2022-09-10T16:38:41.773Z,2.77
2022-09-10T16:41:12.415Z,3.27
2022-09-10T16:43:40.807Z,3.17
2022-09-10T16:46:10.369Z,3.40
2022-09-10T16:48:39.361Z,3.57
2022-09-10T16:51:08.460Z,3.30
2022-09-10T16:53:38.771Z,2.87
2022-09-10T16:56:07.657Z,3.30
2022-09-10T16:58:37.598Z,3.10
2022-09-10T17:01:06.113Z,3.30
2022-09-10T17:03:34.444Z,3.57
2022-09-10T17:06:02.845Z,5.50
2022-09-10T17:08:31.747Z,3.63
2022-09-10T17:11:01.519Z,4.23
2022-09-10T17:13:29.906Z,3.80
2022-09-10T17:16:13.125Z,4.17
2022-09-10T17:18:43.096Z,4.33
2022-09-10T17:21:11.441Z,4.40
2022-09-10T17:23:40.100Z,3.57
2022-09-10T17:26:08.670Z,3.60
2022-09-10T17:28:37.120Z,3.20
2022-09-10T17:31:05.831Z,4.37
2022-09-10T17:33:34.469Z,3.87
2022-09-10T17:36:05.409Z,4.10
2022-09-10T17:38:33.710Z,4.37
2022-09-10T17:41:02.337Z,4.37
2022-09-10T17:43:31.838Z,3.77
2022-09-10T17:46:00.247Z,3.97
2022-09-10T17:48:31.355Z,3.70
2022-09-10T17:51:00.436Z,3.60
2022-09-10T17:53:31.468Z,3.87
2022-09-10T17:56:03.241Z,3.93
2022-09-10T17:58:33.280Z,4.57
2022-09-10T18:01:01.917Z,4.27
2022-09-10T18:03:31.594Z,4.20
2022-09-10T18:06:03.957Z,4.00
2022-09-10T18:08:34.229Z,3.63
2022-09-10T18:11:03.031Z,3.87
2022-09-10T18:13:31.317Z,4.10
2022-09-10T18:15:59.809Z,4.23
2022-09-10T18:18:28.223Z,4.30
2022-09-10T18:20:56.818Z,4.40
2022-09-10T18:23:25.332Z,4.40
2022-09-10T18:25:56.987Z,4.10
2022-09-10T18:28:25.365Z,4.47
2022-09-10T18:30:54.822Z,4.33
2022-09-10T18:33:29.542Z,4.47
2022-09-10T18:35:59.338Z,4.63
2022-09-10T18:38:35.840Z,4.40
2022-09-10T18:41:06.749Z,4.43
2022-09-10T18:43:37.020Z,4.80
2022-09-10T18:46:06.045Z,4.83
2022-09-10T18:48:35.312Z,5.00
2022-09-10T18:51:05.920Z,5.00
2022-09-10T18:53:36.905Z,5.07
2022-09-10T18:56:12.420Z,5.43
2022-09-10T18:58:41.418Z,5.67
2022-09-10T19:01:11.585Z,4.83
2022-09-10T19:03:42.487Z,5.20
2022-09-10T19:06:11.607Z,5.83
2022-09-10T19:08:40.017Z,4.90
2022-09-10T19:11:09.956Z,4.83
2022-09-10T19:13:39.181Z,5.17
2022-09-10T19:16:08.142Z,5.20
2022-09-10T19:18:36.666Z,5.67
2022-09-10T19:21:06.369Z,5.67
2022-09-10T19:23:35.728Z,5.73
2022-09-10T19:26:05.075Z,6.00
2022-09-10T19:28:35.780Z,6.17
2022-09-10T19:31:04.894Z,6.20
2022-09-10T19:33:34.389Z,6.30
2022-09-10T19:36:03.454Z,7.00
2022-09-10T19:38:37.863Z,7.53
2022-09-10T19:41:07.015Z,8.27
2022-09-10T19:43:37.280Z,7.70
2022-09-10T19:46:05.810Z,8.00
2022-09-10T19:48:34.304Z,7.47
2022-09-10T19:51:07.842Z,8.10
2022-09-10T19:53:36.755Z,8.17
2022-09-10T19:56:06.821Z,7.27
2022-09-10T19:58:36.331Z,8.37
2022-09-10T20:01:11.387Z,7.23
2022-09-10T20:03:40.085Z,7.13
2022-09-10T20:06:08.931Z,7.33
2022-09-10T20:08:37.423Z,7.13
2022-09-10T20:11:06.214Z,7.00
2022-09-10T20:13:34.555Z,7.10
2022-09-10T20:16:02.998Z,7.40
2022-09-10T20:18:32.930Z,7.40
2022-09-10T20:21:11.755Z,7.27
2022-09-10T20:23:40.068Z,7.10
2022-09-10T20:26:12.301Z,7.17
2022-09-10T20:28:41.795Z,6.97
2022-09-10T20:31:10.758Z,7.17
2022-09-10T20:33:41.550Z,6.63
2022-09-10T20:36:11.087Z,6.23
2022-09-10T20:38:39.647Z,5.83
2022-09-10T20:41:08.469Z,6.37
2022-09-10T20:43:37.953Z,6.57
2022-09-10T20:46:06.596Z,5.07
2022-09-10T20:48:34.994Z,5.10
2022-09-10T20:51:04.778Z,5.60
2022-09-10T20:53:36.373Z,5.70
2022-09-10T20:56:06.455Z,5.73
2022-09-10T20:58:37.026Z,6.60
2022-09-10T21:01:12.209Z,6.40
2022-09-10T21:03:40.952Z,6.07
2022-09-10T21:06:10.746Z,5.77
2022-09-10T21:08:39.611Z,6.10
2022-09-10T21:11:08.640Z,6.17
2022-09-10T21:13:37.548Z,5.80
2022-09-10T21:16:07.931Z,5.90
2022-09-10T21:18:36.682Z,6.13
2022-09-10T21:21:08.761Z,6.10
2022-09-10T21:23:40.817Z,7.17
2022-09-10T21:26:12.829Z,7.60
2022-09-10T21:28:41.433Z,7.77
2022-09-10T21:31:10.445Z,7.47
2022-09-10T21:33:45.206Z,7.70
2022-09-10T21:36:14.562Z,7.50
2022-09-10T21:38:45.197Z,8.53
2022-09-10T21:41:13.780Z,7.83
2022-09-10T21:43:43.665Z,7.87
2022-09-10T21:46:12.289Z,8.50
2022-09-10T21:48:40.908Z,8.47
2022-09-10T21:51:09.541Z,7.90
2022-09-10T21:53:37.849Z,7.57
2022-09-10T21:56:07.732Z,7.90
2022-09-10T21:58:37.008Z,7.53
2022-09-10T22:01:05.441Z,7.20
2022-09-10T22:03:36.256Z,6.97
2022-09-10T22:06:08.179Z,6.60
2022-09-10T22:08:36.535Z,8.10
2022-09-10T22:11:09.899Z,7.33
2022-09-10T22:13:39.551Z,6.63
2022-09-10T22:16:08.399Z,7.07
2022-09-10T22:18:36.877Z,7.30
2022-09-10T22:21:07.152Z,7.67
2022-09-10T22:23:39.344Z,7.97
2022-09-10T22:26:10.039Z,7.60
2022-09-10T22:28:39.745Z,7.97
2022-09-10T22:31:10.085Z,7.90
2022-09-10T22:33:39.202Z,8.30
2022-09-10T22:36:14.043Z,7.77
2022-09-10T22:38:42.676Z,8.87
2022-09-10T22:41:11.230Z,8.00
2022-09-10T22:43:40.994Z,8.33
2022-09-10T22:46:09.354Z,8.40
2022-09-10T22:48:37.899Z,8.30
2022-09-10T22:51:06.672Z,9.20
2022-09-10T22:53:35.408Z,8.27
2022-09-10T22:56:04.111Z,8.07
2022-09-10T22:58:32.907Z,9.60
2022-09-10T23:01:05.489Z,9.03
2022-09-10T23:03:34.241Z,9.43
2022-09-10T23:06:06.356Z,9.47
2022-09-10T23:08:37.285Z,9.70
2022-09-10T23:11:09.211Z,9.50
2022-09-10T23:13:37.634Z,10.30
2022-09-10T23:16:14.256Z,9.03
2022-09-10T23:18:42.770Z,9.93
2022-09-10T23:21:11.941Z,9.20
2022-09-10T23:23:40.285Z,9.57
2022-09-10T23:26:08.990Z,9.43
2022-09-10T23:28:37.370Z,8.50
2022-09-10T23:31:09.748Z,8.40
2022-09-10T23:33:39.544Z,8.33
2022-09-10T23:36:08.104Z,7.77
2022-09-10T23:38:36.727Z,8.33
2022-09-10T23:41:05.132Z,8.43
2022-09-10T23:43:33.783Z,8.37
2022-09-10T23:46:02.190Z,8.90
2022-09-10T23:48:30.818Z,9.00
2022-09-10T23:51:01.455Z,8.90
2022-09-10T23:53:29.941Z,8.60
2022-09-10T23:55:58.393Z,9.23
2022-09-10T23:58:26.801Z,8.67
